Main page
METAR-TAF:

METAR-TAF

Airports :

Burgos, Spain

Burgos Airport

latitude: 42-22N, longitude: 003-38W, elevation: 894 m

Current weather observation

The report was made 21 minutes ago, at 03:30 UTC
Calm wind
Temperature 4°C
Humidity 81%
Pressure 1023 hPa
Visibility 10 km or more

METAR: LEBG 200330Z AUTO 00000KT 9999 NCD 04/01 Q1023

Time: 05:51 (03:51 UTC)

Forecast

The report was made 1 hour and 51 minutes ago, at 02:00 UTC
Forecast valid from 20 at 03 UTC to 20 at 12 UTC
Wind 5 kt from variable directions
Visibility 10 km or more
Scattered clouds at a height of 2000 ft
Probability 40% :
Temporary
from 20 at 03 UTC to 20 at 08 UTC
Visibility: 3000 m
Broken clouds at a height of 800 ft
mist

TAF: LEBG 200200Z 2003/2012 VRB05KT 9999 SCT020 PROB40 TEMPO 2003/2008 3000 BR BKN008

Weather observations and forecasts of more than 4000 airports (METAR and TAF reports).

The available stations are represented by yellow and red dots on the map.

Hover mouse over dot to see the name of the station.

Then click to see weather observations and forecasts.

To change the map : click on the green buttons with a black cross to zoom in, on the green button with a dash to zoom out, or on the green arrows for adjacent maps.


METAR-TAF: